Time;durP1;ratioP1;P1;durP2;ratioP2;P2;SDS_P1;SDS_P2;PMS_P1;PMS_P2;Temp;Humidity;BMP_temperature;BMP_pressure;BME280_temperature;BME280_humidity;BME280_pressure;Samples;Min_cycle;Max_cycle;Signal;HPM_P1;HPM_P2
2023/08/08 00:01:05;;;;;;;2.70;1.50;;;;;;;;;;4971759;28;20109;-70
2023/08/08 00:03:51;;;;;;;2.65;1.42;;;;;;;;;;4974157;28;20088;-70
2023/08/08 00:06:36;;;;;;;3.63;1.83;;;;;;;;;;4977656;28;20026;-74
2023/08/08 00:09:22;;;;;;;3.70;1.40;;;;;;;;;;4972022;28;20065;-71
2023/08/08 00:12:07;;;;;;;5.55;1.60;;;;;;;;;;4985258;28;20090;-70
2023/08/08 00:14:52;;;;;;;2.25;1.42;;;;;;;;;;4986059;28;20120;-68
2023/08/08 00:17:37;;;;;;;3.95;1.40;;;;;;;;;;4986781;28;20120;-69
2023/08/08 00:20:23;;;;;;;3.28;1.65;;;;;;;;;;4977282;28;20501;-69
2023/08/08 00:23:08;;;;;;;2.45;2.00;;;;;;;;;;4984335;28;20018;-74
2023/08/08 00:25:53;;;;;;;1.90;1.33;;;;;;;;;;4983840;28;20038;-74
2023/08/08 00:28:38;;;;;;;2.30;1.50;;;;;;;;;;4983126;28;20124;-74
2023/08/08 00:31:24;;;;;;;3.75;1.52;;;;;;;;;;4975913;28;20081;-73
2023/08/08 00:34:09;;;;;;;2.00;1.58;;;;;;;;;;4985231;28;20117;-74
2023/08/08 00:36:54;;;;;;;2.83;1.98;;;;;;;;;;4987393;28;20026;-74
2023/08/08 00:43:02;;;;;;;2.30;1.63;;;;;;;;;;4977558;28;20036;-71
2023/08/08 00:45:47;;;;;;;5.65;1.98;;;;;;;;;;4974602;28;20041;-78
2023/08/08 00:48:32;;;;;;;2.78;1.50;;;;;;;;;;4977521;28;20101;-78
2023/08/08 00:51:18;;;;;;;2.63;1.55;;;;;;;;;;4986662;28;20026;-78
2023/08/08 00:54:04;;;;;;;3.30;1.73;;;;;;;;;;4991085;28;20105;-77
2023/08/08 00:56:49;;;;;;;4.15;1.90;;;;;;;;;;4991613;28;20362;-77
2023/08/08 00:59:34;;;;;;;3.40;1.30;;;;;;;;;;4990545;28;20037;-78
2023/08/08 01:02:19;;;;;;;2.03;1.40;;;;;;;;;;4990122;28;20370;-73
2023/08/08 01:05:05;;;;;;;2.88;1.70;;;;;;;;;;4991489;28;20030;-72
2023/08/08 01:08:00;;;;;;;4.40;1.73;;;;;;;;;;4980235;28;20042;-74
2023/08/08 01:10:45;;;;;;;4.07;1.42;;;;;;;;;;4989597;28;20376;-73
2023/08/08 01:13:31;;;;;;;3.72;1.55;;;;;;;;;;4990040;28;20027;-74
2023/08/08 01:16:17;;;;;;;2.35;1.30;;;;;;;;;;4988520;28;20061;-74
2023/08/08 01:19:04;;;;;;;4.15;1.50;;;;;;;;;;4991845;28;20026;-77
2023/08/08 01:21:52;;;;;;;4.97;1.60;;;;;;;;;;4977250;28;20022;-72
2023/08/08 01:24:37;;;;;;;1.95;1.42;;;;;;;;;;4984558;28;20379;-69
2023/08/08 01:27:23;;;;;;;1.85;1.20;;;;;;;;;;4992720;28;20073;-69
2023/08/08 01:30:08;;;;;;;1.52;1.40;;;;;;;;;;4981917;28;20037;-71
2023/08/08 01:32:54;;;;;;;2.83;1.63;;;;;;;;;;4988873;28;20045;-71
2023/08/08 01:35:43;;;;;;;4.47;1.77;;;;;;;;;;4998489;28;20495;-70
2023/08/08 01:38:33;;;;;;;2.20;1.50;;;;;;;;;;4980459;28;20022;-69
2023/08/08 01:41:20;;;;;;;2.53;1.80;;;;;;;;;;4991669;28;20041;-78
2023/08/08 01:44:06;;;;;;;4.53;1.45;;;;;;;;;;4990633;28;20442;-78
2023/08/08 01:46:51;;;;;;;3.63;1.30;;;;;;;;;;4966627;28;20033;-80
2023/08/08 01:49:37;;;;;;;1.95;1.45;;;;;;;;;;4992345;28;20182;-78
2023/08/08 01:52:22;;;;;;;6.32;2.00;;;;;;;;;;4989016;28;20030;-78
2023/08/08 01:55:08;;;;;;;3.10;2.00;;;;;;;;;;4985719;28;20022;-77
2023/08/08 01:57:53;;;;;;;2.40;1.48;;;;;;;;;;4983507;28;20046;-71
2023/08/08 02:00:40;;;;;;;5.20;1.63;;;;;;;;;;4976370;28;20092;-71
2023/08/08 02:03:26;;;;;;;2.13;1.45;;;;;;;;;;4993713;28;20026;-70
2023/08/08 02:06:11;;;;;;;3.13;1.90;;;;;;;;;;4990679;28;20031;-70
2023/08/08 02:08:56;;;;;;;2.45;1.55;;;;;;;;;;4989684;28;20022;-70
2023/08/08 02:11:41;;;;;;;2.10;1.52;;;;;;;;;;4975893;28;20395;-70
2023/08/08 02:14:27;;;;;;;1.63;1.27;;;;;;;;;;4975782;28;20031;-72
2023/08/08 02:17:12;;;;;;;5.07;2.25;;;;;;;;;;4974138;28;20050;-74
2023/08/08 02:19:57;;;;;;;3.20;1.58;;;;;;;;;;4975871;28;20026;-76
2023/08/08 02:22:42;;;;;;;4.38;1.48;;;;;;;;;;4978404;28;20038;-74
2023/08/08 02:25:28;;;;;;;3.65;1.48;;;;;;;;;;4962734;28;20041;-78
2023/08/08 02:28:13;;;;;;;3.15;1.48;;;;;;;;;;4976287;28;20521;-75
2023/08/08 02:30:59;;;;;;;3.20;2.10;;;;;;;;;;4976892;28;20023;-75
2023/08/08 02:33:44;;;;;;;3.72;1.80;;;;;;;;;;4974628;28;20026;-75
2023/08/08 02:36:29;;;;;;;3.67;1.70;;;;;;;;;;4974750;28;20405;-69
2023/08/08 02:39:15;;;;;;;1.85;1.52;;;;;;;;;;4982511;28;20050;-71
2023/08/08 02:42:00;;;;;;;2.60;1.50;;;;;;;;;;4983068;28;20529;-70
2023/08/08 02:44:45;;;;;;;5.65;1.63;;;;;;;;;;4989405;28;20107;-70
2023/08/08 02:47:30;;;;;;;2.25;1.40;;;;;;;;;;4963314;28;20025;-70
2023/08/08 02:50:16;;;;;;;1.98;1.30;;;;;;;;;;4962335;28;20435;-78
2023/08/08 02:55:29;;;;;;;3.38;1.75;;;;;;;;;;5006516;28;20076;-65
2023/08/08 02:58:15;;;;;;;4.90;3.08;;;;;;;;;;4995998;28;20044;-66
2023/08/08 03:01:00;;;;;;;2.28;1.48;;;;;;;;;;5010175;28;20505;-65
2023/08/08 03:03:45;;;;;;;3.55;1.50;;;;;;;;;;4999130;28;20037;-65
2023/08/08 03:06:30;;;;;;;2.45;1.58;;;;;;;;;;5008687;28;20382;-65
2023/08/08 03:09:16;;;;;;;3.08;1.30;;;;;;;;;;5002931;28;20153;-75
2023/08/08 03:12:01;;;;;;;3.35;1.40;;;;;;;;;;5004773;28;20167;-79
2023/08/08 03:14:46;;;;;;;1.55;1.23;;;;;;;;;;5003491;28;20033;-78
2023/08/08 03:17:32;;;;;;;2.30;1.52;;;;;;;;;;4991656;28;20041;-79
2023/08/08 03:20:17;;;;;;;2.42;1.38;;;;;;;;;;5008651;28;20057;-78
2023/08/08 03:23:02;;;;;;;5.65;1.92;;;;;;;;;;5009375;28;20040;-76
2023/08/08 03:26:07;;;;;;;5.32;1.60;;;;;;;;;;5003768;28;20030;-80
2023/08/08 03:28:53;;;;;;;3.40;1.50;;;;;;;;;;4993349;28;20489;-77
2023/08/08 03:31:38;;;;;;;3.15;1.50;;;;;;;;;;5009013;28;20371;-65
2023/08/08 03:34:23;;;;;;;2.92;1.50;;;;;;;;;;5007278;28;20018;-66
2023/08/08 03:37:08;;;;;;;7.00;1.77;;;;;;;;;;4987648;28;20508;-65
2023/08/08 03:39:54;;;;;;;2.78;1.65;;;;;;;;;;5001891;28;20422;-66
2023/08/08 03:42:39;;;;;;;2.72;1.63;;;;;;;;;;4980666;28;20052;-66
2023/08/08 03:45:24;;;;;;;2.85;1.88;;;;;;;;;;4984498;28;20375;-79
2023/08/08 03:48:09;;;;;;;2.33;2.05;;;;;;;;;;4989376;28;20125;-70
2023/08/08 03:50:55;;;;;;;2.28;1.60;;;;;;;;;;4975821;28;20050;-69
2023/08/08 03:53:40;;;;;;;4.05;1.70;;;;;;;;;;4989873;28;20057;-69
2023/08/08 03:56:26;;;;;;;3.22;1.60;;;;;;;;;;4987997;28;20026;-68
2023/08/08 03:59:12;;;;;;;6.45;1.88;;;;;;;;;;4987814;28;20049;-70
2023/08/08 04:01:57;;;;;;;1.60;1.33;;;;;;;;;;4998036;28;20027;-68
2023/08/08 04:04:42;;;;;;;5.28;1.60;;;;;;;;;;4979751;28;20084;-64
2023/08/08 04:07:27;;;;;;;2.80;1.77;;;;;;;;;;4988223;28;20470;-70
2023/08/08 04:10:13;;;;;;;2.38;1.48;;;;;;;;;;4987876;28;20069;-69
2023/08/08 04:12:58;;;;;;;4.40;1.75;;;;;;;;;;5001135;28;20038;-70
2023/08/08 04:15:44;;;;;;;2.63;1.70;;;;;;;;;;4985951;28;20071;-69
2023/08/08 04:18:29;;;;;;;3.50;1.80;;;;;;;;;;5001414;28;20477;-69
2023/08/08 04:21:14;;;;;;;4.45;1.90;;;;;;;;;;4988232;28;20038;-69
2023/08/08 04:24:00;;;;;;;3.70;1.70;;;;;;;;;;4984974;28;20504;-66
2023/08/08 04:26:45;;;;;;;3.78;1.98;;;;;;;;;;4986907;28;20113;-64
2023/08/08 04:29:30;;;;;;;2.50;1.50;;;;;;;;;;4988230;28;20113;-67
2023/08/08 04:32:15;;;;;;;1.95;1.35;;;;;;;;;;4985050;28;20363;-66
2023/08/08 04:35:00;;;;;;;6.13;2.05;;;;;;;;;;4973245;28;20030;-66
2023/08/08 04:37:46;;;;;;;2.75;1.70;;;;;;;;;;4989180;28;20034;-65
2023/08/08 04:40:31;;;;;;;4.68;2.17;;;;;;;;;;4972983;28;20022;-73
2023/08/08 04:43:16;;;;;;;4.72;1.77;;;;;;;;;;5000586;28;20121;-78
2023/08/08 04:46:02;;;;;;;4.53;1.40;;;;;;;;;;4979686;28;20461;-79
2023/08/08 04:48:47;;;;;;;2.10;1.67;;;;;;;;;;4987804;28;20041;-78
2023/08/08 04:51:32;;;;;;;2.75;1.55;;;;;;;;;;4982602;28;20041;-78
2023/08/08 04:54:17;;;;;;;4.95;1.98;;;;;;;;;;4979692;28;20572;-78
2023/08/08 04:57:02;;;;;;;5.30;2.05;;;;;;;;;;4986853;28;20121;-77
2023/08/08 04:59:48;;;;;;;3.65;1.75;;;;;;;;;;4987576;28;20034;-73
2023/08/08 05:02:33;;;;;;;3.83;2.08;;;;;;;;;;4974316;28;20113;-68
2023/08/08 05:05:18;;;;;;;2.20;1.27;;;;;;;;;;4986955;28;20030;-69
2023/08/08 05:08:04;;;;;;;4.82;2.35;;;;;;;;;;4969133;28;20042;-69
2023/08/08 05:10:49;;;;;;;3.30;1.88;;;;;;;;;;4987449;28;20062;-69
2023/08/08 05:13:34;;;;;;;4.43;2.28;;;;;;;;;;5002330;28;20056;-68
2023/08/08 05:16:19;;;;;;;6.28;1.75;;;;;;;;;;4988106;28;20042;-69
2023/08/08 05:19:04;;;;;;;2.30;1.67;;;;;;;;;;4986795;28;20632;-70
2023/08/08 05:21:50;;;;;;;3.95;1.40;;;;;;;;;;4987066;28;20071;-77
2023/08/08 05:24:35;;;;;;;3.10;2.22;;;;;;;;;;4987641;28;20034;-77
2023/08/08 05:27:20;;;;;;;3.03;1.60;;;;;;;;;;4981415;28;20022;-84
2023/08/08 05:30:06;;;;;;;5.43;1.70;;;;;;;;;;4985241;28;20026;-83
2023/08/08 05:32:51;;;;;;;3.90;1.88;;;;;;;;;;4983985;28;20065;-85
2023/08/08 05:35:37;;;;;;;2.00;1.67;;;;;;;;;;4983038;28;20066;-81
2023/08/08 05:38:22;;;;;;;2.65;1.90;;;;;;;;;;4971592;28;20038;-73
2023/08/08 05:41:07;;;;;;;3.95;1.80;;;;;;;;;;4989613;28;20022;-69
2023/08/08 05:43:52;;;;;;;2.75;1.98;;;;;;;;;;4988719;28;20386;-70
2023/08/08 05:46:37;;;;;;;4.10;1.95;;;;;;;;;;4992301;28;20038;-70
2023/08/08 05:49:23;;;;;;;3.90;1.67;;;;;;;;;;4985682;28;20030;-70
2023/08/08 05:52:08;;;;;;;2.10;1.27;;;;;;;;;;4984272;28;20018;-68
2023/08/08 05:54:54;;;;;;;3.20;1.15;;;;;;;;;;4985476;28;20057;-70
2023/08/08 05:57:39;;;;;;;5.18;1.65;;;;;;;;;;4984465;28;20095;-69
2023/08/08 06:00:24;;;;;;;1.90;1.45;;;;;;;;;;4986170;28;20033;-69
2023/08/08 06:03:10;;;;;;;5.68;1.63;;;;;;;;;;4990484;28;20022;-69
2023/08/08 06:05:56;;;;;;;3.70;1.38;;;;;;;;;;4972852;28;20053;-70
2023/08/08 06:08:41;;;;;;;1.83;1.45;;;;;;;;;;4987374;28;20117;-69
2023/08/08 06:11:26;;;;;;;4.53;1.58;;;;;;;;;;4972510;28;20449;-70
2023/08/08 06:14:11;;;;;;;1.55;1.30;;;;;;;;;;4983330;28;20034;-68
2023/08/08 06:16:57;;;;;;;2.83;1.58;;;;;;;;;;4984200;28;20209;-66
2023/08/08 06:19:42;;;;;;;2.88;1.75;;;;;;;;;;5001113;28;20057;-64
2023/08/08 06:22:27;;;;;;;3.00;1.60;;;;;;;;;;4983082;28;20035;-64
2023/08/08 06:25:13;;;;;;;2.15;1.33;;;;;;;;;;5001162;28;20367;-66
2023/08/08 06:27:58;;;;;;;2.42;1.00;;;;;;;;;;4986404;28;20038;-66
2023/08/08 06:30:43;;;;;;;2.80;1.50;;;;;;;;;;4988587;28;20473;-66
2023/08/08 06:33:29;;;;;;;2.92;1.38;;;;;;;;;;4985419;28;20033;-70
2023/08/08 06:36:14;;;;;;;2.40;1.20;;;;;;;;;;4970150;28;20026;-78
2023/08/08 06:39:00;;;;;;;4.00;1.75;;;;;;;;;;4968352;28;20030;-78
2023/08/08 06:41:45;;;;;;;6.35;2.20;;;;;;;;;;4986525;28;20029;-78
2023/08/08 06:44:32;;;;;;;5.72;1.90;;;;;;;;;;4985204;28;20397;-77
2023/08/08 06:47:17;;;;;;;5.55;1.90;;;;;;;;;;4971513;28;20080;-77
2023/08/08 06:50:03;;;;;;;3.60;1.70;;;;;;;;;;4965046;28;20129;-67
2023/08/08 06:52:48;;;;;;;3.03;1.40;;;;;;;;;;4996601;28;20041;-66
2023/08/08 06:55:34;;;;;;;4.60;1.80;;;;;;;;;;4985692;28;20085;-66
2023/08/08 06:58:19;;;;;;;3.92;1.70;;;;;;;;;;4984647;28;20045;-64
2023/08/08 07:01:04;;;;;;;3.03;1.40;;;;;;;;;;4963769;28;20389;-68
2023/08/08 07:03:49;;;;;;;4.28;1.75;;;;;;;;;;4980311;28;20030;-67
2023/08/08 07:06:36;;;;;;;2.47;1.70;;;;;;;;;;4986574;28;20026;-66
2023/08/08 07:09:21;;;;;;;2.58;1.73;;;;;;;;;;4968304;28;20034;-82
2023/08/08 07:12:07;;;;;;;3.15;1.63;;;;;;;;;;4996840;28;20030;-71
2023/08/08 07:14:52;;;;;;;7.03;1.58;;;;;;;;;;4987135;28;20397;-70
2023/08/08 07:17:37;;;;;;;6.18;1.33;;;;;;;;;;4981329;28;20112;-69
2023/08/08 07:20:23;;;;;;;2.58;1.65;;;;;;;;;;4999536;28;20038;-72
2023/08/08 07:23:08;;;;;;;3.20;2.03;;;;;;;;;;4981252;28;20065;-71
2023/08/08 07:25:54;;;;;;;2.00;1.48;;;;;;;;;;4999104;28;20117;-69
2023/08/08 07:28:39;;;;;;;2.70;1.70;;;;;;;;;;4970691;28;20026;-69
2023/08/08 07:31:24;;;;;;;2.70;1.52;;;;;;;;;;4996324;28;20033;-77
2023/08/08 07:34:10;;;;;;;4.18;2.13;;;;;;;;;;4973981;28;20135;-76
2023/08/08 07:36:55;;;;;;;3.75;1.63;;;;;;;;;;4985053;28;20717;-75
2023/08/08 07:39:41;;;;;;;4.10;1.70;;;;;;;;;;4982226;28;20545;-76
2023/08/08 07:42:26;;;;;;;3.05;1.42;;;;;;;;;;4986810;28;20034;-78
2023/08/08 07:45:11;;;;;;;1.98;1.48;;;;;;;;;;4983918;28;20140;-66
2023/08/08 07:47:57;;;;;;;1.83;1.15;;;;;;;;;;4985702;28;20026;-76
2023/08/08 07:50:42;;;;;;;1.77;1.30;;;;;;;;;;4983590;28;20049;-79
2023/08/08 07:53:27;;;;;;;2.40;1.50;;;;;;;;;;4996774;28;20449;-77
2023/08/08 07:56:12;;;;;;;3.05;1.45;;;;;;;;;;4988527;28;20026;-80
2023/08/08 07:58:58;;;;;;;4.95;1.55;;;;;;;;;;4984950;28;20027;-76
2023/08/08 08:01:43;;;;;;;3.20;1.15;;;;;;;;;;4984914;28;20085;-72
2023/08/08 08:04:28;;;;;;;3.03;1.42;;;;;;;;;;4990147;28;20030;-76
2023/08/08 08:07:14;;;;;;;3.13;1.30;;;;;;;;;;4983126;28;20477;-86
2023/08/08 08:09:59;;;;;;;3.72;1.50;;;;;;;;;;4970559;28;20121;-79
2023/08/08 08:12:44;;;;;;;1.50;1.20;;;;;;;;;;4982866;28;20520;-85
2023/08/08 08:15:30;;;;;;;2.40;1.30;;;;;;;;;;4988212;28;20034;-79
2023/08/08 08:18:17;;;;;;;2.78;1.40;;;;;;;;;;4975770;28;20055;-78
2023/08/08 08:21:02;;;;;;;1.15;1.00;;;;;;;;;;4981815;28;20030;-74
2023/08/08 08:23:47;;;;;;;2.60;1.60;;;;;;;;;;4998981;28;20137;-68
2023/08/08 08:26:32;;;;;;;2.80;1.30;;;;;;;;;;4982915;28;20022;-66
2023/08/08 08:29:17;;;;;;;2.38;1.42;;;;;;;;;;4983304;28;20034;-67
2023/08/08 08:32:03;;;;;;;3.50;1.58;;;;;;;;;;4983778;28;20505;-66
2023/08/08 08:34:48;;;;;;;2.20;1.40;;;;;;;;;;4975675;28;20588;-68
2023/08/08 08:37:34;;;;;;;2.10;1.20;;;;;;;;;;4983089;28;20030;-67
2023/08/08 08:40:19;;;;;;;3.25;1.52;;;;;;;;;;4997560;28;20481;-81
2023/08/08 08:43:06;;;;;;;2.60;1.20;;;;;;;;;;5017075;23;20057;-72
2023/08/08 08:45:52;;;;;;;2.60;1.60;;;;;;;;;;5010465;28;20037;-70
2023/08/08 08:48:38;;;;;;;2.50;1.38;;;;;;;;;;5011024;28;20026;-70
2023/08/08 08:51:23;;;;;;;1.80;1.13;;;;;;;;;;5021057;28;20024;-70
2023/08/08 08:54:09;;;;;;;3.25;1.40;;;;;;;;;;5011863;28;20043;-70
2023/08/08 08:56:55;;;;;;;3.78;1.30;;;;;;;;;;5021927;28;20033;-71
2023/08/08 08:59:40;;;;;;;1.77;1.10;;;;;;;;;;5031844;28;20036;-80
2023/08/08 09:02:25;;;;;;;1.30;1.10;;;;;;;;;;5025851;28;20564;-81
2023/08/08 09:05:11;;;;;;;2.53;1.20;;;;;;;;;;5019388;28;20029;-83
2023/08/08 09:07:56;;;;;;;2.10;1.40;;;;;;;;;;5007150;28;20040;-81
2023/08/08 09:10:42;;;;;;;2.70;1.70;;;;;;;;;;5006477;28;20116;-81
2023/08/08 09:13:32;;;;;;;2.67;1.30;;;;;;;;;;5011802;28;20125;-79
2023/08/08 09:16:18;;;;;;;5.38;1.70;;;;;;;;;;5028496;28;20129;-71
2023/08/08 09:19:03;;;;;;;4.32;1.52;;;;;;;;;;5012654;28;20018;-80
2023/08/08 09:21:49;;;;;;;3.13;1.30;;;;;;;;;;5012527;28;20030;-70
2023/08/08 09:24:37;;;;;;;3.20;1.40;;;;;;;;;;5041079;28;20025;-72
2023/08/08 09:27:23;;;;;;;3.13;1.15;;;;;;;;;;5025772;28;20053;-68
2023/08/08 09:30:09;;;;;;;2.17;1.30;;;;;;;;;;5023207;28;20061;-71
2023/08/08 09:32:57;;;;;;;2.55;1.40;;;;;;;;;;5025796;28;20061;-69
2023/08/08 09:35:43;;;;;;;1.43;0.93;;;;;;;;;;5026960;28;20044;-76
2023/08/08 09:38:28;;;;;;;2.53;1.27;;;;;;;;;;5025231;28;20353;-75
2023/08/08 09:41:14;;;;;;;1.50;1.10;;;;;;;;;;5027630;28;20057;-73
2023/08/08 09:44:00;;;;;;;4.32;1.80;;;;;;;;;;5023282;28;20413;-74
2023/08/08 09:46:45;;;;;;;5.15;1.33;;;;;;;;;;5014467;28;20124;-74
2023/08/08 09:49:34;;;;;;;3.42;1.58;;;;;;;;;;5027005;28;20535;-75
2023/08/08 09:52:19;;;;;;;2.72;1.38;;;;;;;;;;5013095;28;20464;-75
2023/08/08 09:55:05;;;;;;;3.90;1.25;;;;;;;;;;5012301;28;20052;-69
2023/08/08 09:57:51;;;;;;;3.42;1.27;;;;;;;;;;5013717;28;20033;-69
2023/08/08 10:00:36;;;;;;;2.58;1.58;;;;;;;;;;5027700;28;20033;-69
2023/08/08 10:03:22;;;;;;;2.08;1.25;;;;;;;;;;5022869;28;20431;-69
2023/08/08 10:06:07;;;;;;;5.20;1.60;;;;;;;;;;5024798;28;20069;-70
2023/08/08 10:08:52;;;;;;;3.28;1.55;;;;;;;;;;5029691;28;21035;-69
2023/08/08 10:11:38;;;;;;;3.13;1.33;;;;;;;;;;5023023;28;20494;-68
2023/08/08 10:14:28;;;;;;;2.78;1.58;;;;;;;;;;5036809;28;20029;-69
2023/08/08 10:17:14;;;;;;;13.90;6.85;;;;;;;;;;5021298;28;20491;-75
2023/08/08 10:20:08;;;;;;;53.97;32.03;;;;;;;;;;5005714;28;20026;-77
2023/08/08 10:22:54;;;;;;;17.90;7.45;;;;;;;;;;5012048;28;20022;-73
2023/08/08 10:25:43;;;;;;;34.78;19.33;;;;;;;;;;5020089;28;20029;-69
2023/08/08 10:28:31;;;;;;;33.55;17.30;;;;;;;;;;5027258;28;20165;-70
2023/08/08 10:31:19;;;;;;;33.90;17.13;;;;;;;;;;5024988;28;20036;-74
2023/08/08 10:34:05;;;;;;;24.05;12.82;;;;;;;;;;5023459;28;20025;-73
2023/08/08 10:36:52;;;;;;;18.70;9.68;;;;;;;;;;5024628;28;20041;-71
2023/08/08 10:39:37;;;;;;;33.85;16.25;;;;;;;;;;5025826;28;20025;-70
2023/08/08 10:42:23;;;;;;;74.30;38.15;;;;;;;;;;5019570;28;20482;-70
2023/08/08 10:45:09;;;;;;;13.00;6.57;;;;;;;;;;5020227;28;20681;-68
2023/08/08 10:47:55;;;;;;;7.13;2.88;;;;;;;;;;5022009;28;20078;-72
2023/08/08 10:50:41;;;;;;;28.80;13.07;;;;;;;;;;5024652;28;20056;-71
2023/08/08 10:53:27;;;;;;;7.45;2.30;;;;;;;;;;5023467;28;20022;-69
2023/08/08 10:56:13;;;;;;;8.75;2.70;;;;;;;;;;5025430;28;20258;-72
2023/08/08 10:58:58;;;;;;;10.65;2.50;;;;;;;;;;5023718;28;20080;-69
2023/08/08 11:01:48;;;;;;;5.68;1.88;;;;;;;;;;5023994;28;20396;-68
2023/08/08 11:04:35;;;;;;;3.17;1.70;;;;;;;;;;5026392;28;20036;-68
2023/08/08 11:07:21;;;;;;;2.17;1.38;;;;;;;;;;5025207;28;20025;-71
2023/08/08 11:10:06;;;;;;;2.92;1.65;;;;;;;;;;5022449;28;20452;-74
2023/08/08 11:12:53;;;;;;;3.03;1.60;;;;;;;;;;5012541;28;20142;-74
2023/08/08 11:15:38;;;;;;;3.88;2.00;;;;;;;;;;5037946;28;20025;-75
2023/08/08 11:18:25;;;;;;;2.83;1.65;;;;;;;;;;5027399;28;20500;-75
2023/08/08 11:21:11;;;;;;;3.47;1.30;;;;;;;;;;5025543;28;20031;-74
2023/08/08 11:23:57;;;;;;;2.22;1.45;;;;;;;;;;5024965;28;20447;-74
2023/08/08 11:26:45;;;;;;;2.17;1.10;;;;;;;;;;5026837;28;20356;-78
2023/08/08 11:29:31;;;;;;;6.60;2.05;;;;;;;;;;5023089;28;20052;-72
2023/08/08 11:32:16;;;;;;;3.85;1.38;;;;;;;;;;5029726;28;20124;-71
2023/08/08 11:35:02;;;;;;;2.22;1.50;;;;;;;;;;5020586;28;20040;-70
2023/08/08 11:37:47;;;;;;;3.28;1.60;;;;;;;;;;5022179;28;20076;-71
2023/08/08 11:40:33;;;;;;;3.05;1.27;;;;;;;;;;5028789;28;20025;-72
2023/08/08 11:43:18;;;;;;;1.83;1.17;;;;;;;;;;5027728;28;20372;-69
2023/08/08 11:46:03;;;;;;;3.10;1.20;;;;;;;;;;5017119;28;20020;-72
2023/08/08 11:48:48;;;;;;;3.55;1.42;;;;;;;;;;5015012;28;20083;-71
2023/08/08 11:51:34;;;;;;;2.63;1.50;;;;;;;;;;5009936;28;20033;-72
2023/08/08 11:54:19;;;;;;;2.63;1.42;;;;;;;;;;5021345;28;20468;-71
2023/08/08 11:57:06;;;;;;;4.30;1.52;;;;;;;;;;5021358;28;20119;-74
2023/08/08 11:59:52;;;;;;;2.38;1.33;;;;;;;;;;5023871;28;20027;-70
2023/08/08 12:02:38;;;;;;;2.50;1.52;;;;;;;;;;5021449;28;20523;-68
2023/08/08 12:05:24;;;;;;;2.45;1.50;;;;;;;;;;5027635;28;20017;-71
2023/08/08 12:08:10;;;;;;;1.83;1.30;;;;;;;;;;5025972;28;20045;-75
2023/08/08 12:10:56;;;;;;;3.22;1.30;;;;;;;;;;5008924;28;20025;-73
2023/08/08 12:13:42;;;;;;;2.80;1.48;;;;;;;;;;5020950;28;20032;-70
2023/08/08 12:16:30;;;;;;;2.72;1.42;;;;;;;;;;5006628;28;20098;-72
2023/08/08 12:19:20;;;;;;;5.13;1.20;;;;;;;;;;5025263;28;20037;-71
2023/08/08 12:22:06;;;;;;;2.10;1.42;;;;;;;;;;5025321;28;20033;-72
2023/08/08 12:24:51;;;;;;;1.48;1.17;;;;;;;;;;5019144;28;20025;-74
2023/08/08 12:27:38;;;;;;;3.83;1.50;;;;;;;;;;5006602;28;20068;-73
2023/08/08 12:30:23;;;;;;;3.92;1.20;;;;;;;;;;5023212;28;20103;-70
2023/08/08 12:33:08;;;;;;;2.30;1.45;;;;;;;;;;5020183;28;20440;-69
2023/08/08 12:35:54;;;;;;;2.63;1.27;;;;;;;;;;5020249;28;20042;-68
2023/08/08 12:38:40;;;;;;;1.60;1.40;;;;;;;;;;5027363;28;20138;-71
2023/08/08 12:41:25;;;;;;;3.00;1.27;;;;;;;;;;5001905;28;20025;-67
2023/08/08 12:44:10;;;;;;;2.70;1.20;;;;;;;;;;5023467;28;20167;-68
2023/08/08 12:46:56;;;;;;;3.10;1.13;;;;;;;;;;5022609;28;20033;-65
2023/08/08 12:49:41;;;;;;;1.77;1.38;;;;;;;;;;5028659;28;20041;-68
2023/08/08 12:52:26;;;;;;;2.22;1.13;;;;;;;;;;5015328;28;20017;-67
2023/08/08 12:55:12;;;;;;;3.83;2.38;;;;;;;;;;5018240;28;20090;-66
2023/08/08 12:57:57;;;;;;;3.22;1.27;;;;;;;;;;5023525;28;20492;-75
2023/08/08 13:00:42;;;;;;;4.88;1.77;;;;;;;;;;5027358;28;20074;-71
2023/08/08 13:03:27;;;;;;;5.10;1.52;;;;;;;;;;5025605;28;20040;-73
2023/08/08 13:06:13;;;;;;;2.58;1.20;;;;;;;;;;5027360;28;20397;-72
2023/08/08 13:08:58;;;;;;;2.00;1.30;;;;;;;;;;5028895;28;20033;-72
2023/08/08 13:11:43;;;;;;;5.03;1.50;;;;;;;;;;5023580;28;20017;-72
2023/08/08 13:14:29;;;;;;;2.53;1.27;;;;;;;;;;5029618;28;20037;-74
2023/08/08 13:17:14;;;;;;;1.85;1.13;;;;;;;;;;5037059;28;20029;-72
2023/08/08 13:19:59;;;;;;;2.97;1.15;;;;;;;;;;5031229;28;20079;-74
2023/08/08 13:22:44;;;;;;;3.58;1.27;;;;;;;;;;5026506;28;20530;-74
2023/08/08 13:25:31;;;;;;;4.22;1.88;;;;;;;;;;5029239;28;20467;-73
2023/08/08 13:28:16;;;;;;;3.13;1.75;;;;;;;;;;5029383;28;20040;-73
2023/08/08 13:31:01;;;;;;;4.70;1.80;;;;;;;;;;5027868;28;20031;-75
2023/08/08 13:33:47;;;;;;;2.17;1.40;;;;;;;;;;5027045;28;20087;-77
2023/08/08 13:36:32;;;;;;;4.38;1.90;;;;;;;;;;5013440;28;20033;-69
2023/08/08 13:39:17;;;;;;;3.92;1.80;;;;;;;;;;5031316;28;20731;-73
2023/08/08 13:42:03;;;;;;;5.13;1.70;;;;;;;;;;5026576;28;20480;-75
2023/08/08 13:44:49;;;;;;;2.30;1.38;;;;;;;;;;5011950;28;20053;-73
2023/08/08 13:47:35;;;;;;;3.47;1.52;;;;;;;;;;5027511;28;20108;-74
2023/08/08 13:50:20;;;;;;;1.92;1.23;;;;;;;;;;5012916;28;20021;-75
2023/08/08 13:53:05;;;;;;;2.15;1.35;;;;;;;;;;5022217;28;20120;-77
2023/08/08 13:55:51;;;;;;;3.40;1.50;;;;;;;;;;5014607;28;20039;-71
2023/08/08 13:58:36;;;;;;;3.13;1.10;;;;;;;;;;5027094;28;20037;-72
2023/08/08 14:01:21;;;;;;;3.13;1.27;;;;;;;;;;5026046;28;20440;-74
2023/08/08 14:04:06;;;;;;;3.85;1.58;;;;;;;;;;5026715;28;20065;-74
2023/08/08 14:06:52;;;;;;;3.63;1.30;;;;;;;;;;5021989;28;20064;-77
2023/08/08 14:09:37;;;;;;;3.45;1.20;;;;;;;;;;5012541;28;20120;-74
2023/08/08 14:12:22;;;;;;;2.75;1.27;;;;;;;;;;5014659;28;20025;-75
2023/08/08 14:15:09;;;;;;;3.53;1.38;;;;;;;;;;5029681;28;20037;-76
2023/08/08 14:17:54;;;;;;;2.20;1.23;;;;;;;;;;5022340;28;20044;-77
2023/08/08 14:20:40;;;;;;;2.90;1.23;;;;;;;;;;5025471;28;20065;-76
2023/08/08 14:23:25;;;;;;;1.75;1.20;;;;;;;;;;5025349;28;20037;-77
2023/08/08 14:26:11;;;;;;;3.33;1.48;;;;;;;;;;5023530;28;20029;-74
2023/08/08 14:28:56;;;;;;;3.95;1.63;;;;;;;;;;5023102;28;20367;-71
2023/08/08 14:31:42;;;;;;;3.55;1.48;;;;;;;;;;5011137;28;20097;-79
2023/08/08 14:34:30;;;;;;;2.92;1.38;;;;;;;;;;5025928;28;20037;-80
2023/08/08 14:37:16;;;;;;;5.53;2.00;;;;;;;;;;5027746;28;20072;-82
2023/08/08 14:40:02;;;;;;;3.60;1.50;;;;;;;;;;5024061;28;20065;-83
2023/08/08 14:42:47;;;;;;;2.90;1.35;;;;;;;;;;5011556;28;20033;-83
2023/08/08 14:45:33;;;;;;;7.78;2.08;;;;;;;;;;5023887;28;20472;-83
2023/08/08 14:48:18;;;;;;;3.60;1.60;;;;;;;;;;5025185;28;20025;-82
2023/08/08 14:51:03;;;;;;;2.20;1.42;;;;;;;;;;5037493;28;20039;-72
2023/08/08 14:53:48;;;;;;;2.75;1.23;;;;;;;;;;5031376;28;20108;-72
2023/08/08 14:56:34;;;;;;;3.72;1.55;;;;;;;;;;5039849;28;20029;-72
2023/08/08 14:59:19;;;;;;;3.97;1.92;;;;;;;;;;5019051;28;20088;-72
2023/08/08 15:02:04;;;;;;;2.95;1.75;;;;;;;;;;5025762;28;20022;-73
2023/08/08 15:04:49;;;;;;;5.80;2.03;;;;;;;;;;5010107;28;20491;-73
2023/08/08 15:07:35;;;;;;;2.20;1.30;;;;;;;;;;5027087;28;20029;-82
2023/08/08 15:10:20;;;;;;;1.90;1.40;;;;;;;;;;5016030;28;20037;-79
2023/08/08 15:13:05;;;;;;;4.10;1.75;;;;;;;;;;5030318;28;20097;-80
2023/08/08 15:15:51;;;;;;;2.50;1.30;;;;;;;;;;5022492;28;20095;-76
2023/08/08 15:18:36;;;;;;;3.67;1.55;;;;;;;;;;5019992;28;20040;-80
2023/08/08 15:21:21;;;;;;;3.70;1.52;;;;;;;;;;5029210;28;20476;-80
2023/08/08 15:24:07;;;;;;;2.78;1.55;;;;;;;;;;5026753;28;20510;-69
2023/08/08 15:26:52;;;;;;;3.63;1.52;;;;;;;;;;5011241;28;20480;-72
2023/08/08 15:29:37;;;;;;;2.50;1.50;;;;;;;;;;5008704;28;20046;-72
2023/08/08 15:32:22;;;;;;;3.05;1.23;;;;;;;;;;5029425;28;20029;-74
2023/08/08 15:35:08;;;;;;;3.78;1.30;;;;;;;;;;5023081;28;20091;-73
2023/08/08 15:37:53;;;;;;;2.58;1.65;;;;;;;;;;5021068;28;20101;-71
2023/08/08 15:40:39;;;;;;;2.58;1.33;;;;;;;;;;5010747;28;20495;-74
2023/08/08 15:43:24;;;;;;;5.80;1.85;;;;;;;;;;5022512;28;20836;-74
2023/08/08 15:46:10;;;;;;;2.45;1.30;;;;;;;;;;5022737;28;20476;-72
2023/08/08 15:48:55;;;;;;;2.33;1.40;;;;;;;;;;5010303;28;20104;-72
2023/08/08 15:51:41;;;;;;;3.70;1.70;;;;;;;;;;5025596;28;20025;-74
2023/08/08 15:54:26;;;;;;;1.98;1.45;;;;;;;;;;5024303;28;20557;-71
2023/08/08 15:57:11;;;;;;;4.07;1.35;;;;;;;;;;5023434;28;20044;-73
2023/08/08 15:59:58;;;;;;;2.58;1.55;;;;;;;;;;5021843;28;20050;-73
2023/08/08 16:02:43;;;;;;;1.33;1.10;;;;;;;;;;5026683;28;20036;-70
2023/08/08 16:05:28;;;;;;;2.53;1.45;;;;;;;;;;5029493;28;20025;-78
2023/08/08 16:08:13;;;;;;;2.10;1.60;;;;;;;;;;5024621;28;20101;-80
2023/08/08 16:10:59;;;;;;;3.13;1.52;;;;;;;;;;5024930;28;20025;-79
2023/08/08 16:13:44;;;;;;;3.22;1.80;;;;;;;;;;5009082;28;20406;-79
2023/08/08 16:16:30;;;;;;;1.30;1.20;;;;;;;;;;5027997;28;20041;-79
2023/08/08 16:19:16;;;;;;;4.82;1.48;;;;;;;;;;5009708;28;20442;-71
2023/08/08 16:22:02;;;;;;;2.92;1.30;;;;;;;;;;5017376;28;20032;-73
2023/08/08 16:24:48;;;;;;;2.30;1.42;;;;;;;;;;5018182;28;20494;-72
2023/08/08 16:27:33;;;;;;;3.05;1.38;;;;;;;;;;5027493;28;20500;-72
2023/08/08 16:30:18;;;;;;;5.22;1.42;;;;;;;;;;5017752;28;20603;-73
2023/08/08 16:33:04;;;;;;;3.50;1.40;;;;;;;;;;5027297;28;20041;-72
2023/08/08 16:35:49;;;;;;;3.40;1.35;;;;;;;;;;5022463;28;20032;-72
2023/08/08 16:38:36;;;;;;;3.90;1.67;;;;;;;;;;5027963;28;20461;-77